Time;durP1;ratioP1;P1;durP2;ratioP2;P2;SDS_P1;SDS_P2;PMS_P1;PMS_P2;Temp;Humidity;BMP_temperature;BMP_pressure;BME280_temperature;BME280_humidity;BME280_pressure;Samples;Min_cycle;Max_cycle;Signal;HPM_P1;HPM_P2
2024/03/20 00:01:35;;;;;;;3.17;0.82;;;;;;;;;;5071765;28;20051;-62
2024/03/20 00:04:03;;;;;;;2.88;0.82;;;;;;;;;;5072171;28;20052;-61
2024/03/20 00:06:32;;;;;;;2.80;0.80;;;;;;;;;;5071913;28;20041;-61
2024/03/20 00:08:58;;;;;;;2.15;0.80;;;;;;;;;;5071397;28;20044;-62
2024/03/20 00:11:23;;;;;;;3.05;0.82;;;;;;;;;;5071285;28;20448;-59
2024/03/20 00:13:48;;;;;;;1.58;0.70;;;;;;;;;;5071773;28;20044;-53
2024/03/20 00:16:14;;;;;;;1.55;0.80;;;;;;;;;;5071212;28;20036;-52
2024/03/20 00:18:39;;;;;;;1.50;0.80;;;;;;;;;;5071632;28;20110;-56
2024/03/20 00:21:05;;;;;;;1.77;0.70;;;;;;;;;;5071700;28;20411;-55
2024/03/20 00:23:31;;;;;;;1.75;0.70;;;;;;;;;;5071326;28;20037;-56
2024/03/20 00:25:57;;;;;;;1.83;0.70;;;;;;;;;;5071439;28;20025;-54
2024/03/20 00:28:22;;;;;;;1.85;0.75;;;;;;;;;;5071415;28;20089;-53
2024/03/20 00:30:47;;;;;;;2.42;0.75;;;;;;;;;;5071509;28;20044;-56
2024/03/20 00:33:13;;;;;;;4.25;0.95;;;;;;;;;;5070930;28;20520;-53
2024/03/20 00:35:38;;;;;;;3.92;0.70;;;;;;;;;;5071983;28;20051;-55
2024/03/20 00:38:04;;;;;;;1.88;0.80;;;;;;;;;;5071431;28;20040;-56
2024/03/20 00:40:29;;;;;;;1.25;0.60;;;;;;;;;;5070136;28;20107;-56
2024/03/20 00:42:55;;;;;;;3.80;0.70;;;;;;;;;;5070061;28;20116;-55
2024/03/20 00:45:20;;;;;;;2.15;0.60;;;;;;;;;;5065636;28;20094;-55
2024/03/20 00:47:46;;;;;;;1.67;0.80;;;;;;;;;;5070895;28;20044;-52
2024/03/20 00:50:11;;;;;;;1.20;0.60;;;;;;;;;;5071045;28;20033;-53
2024/03/20 00:52:36;;;;;;;1.77;0.60;;;;;;;;;;5071139;28;20461;-59
2024/03/20 00:55:02;;;;;;;1.08;0.70;;;;;;;;;;5070996;28;20369;-60
2024/03/20 00:57:27;;;;;;;1.50;0.70;;;;;;;;;;5070549;28;20122;-62
2024/03/20 00:59:53;;;;;;;3.38;0.75;;;;;;;;;;5071159;28;20094;-60
2024/03/20 01:02:18;;;;;;;1.80;0.80;;;;;;;;;;5070482;28;20542;-60
2024/03/20 01:04:44;;;;;;;1.20;0.70;;;;;;;;;;5070638;28;20179;-59
2024/03/20 01:07:09;;;;;;;2.00;0.73;;;;;;;;;;5070736;28;20036;-55
2024/03/20 01:09:35;;;;;;;1.95;0.60;;;;;;;;;;5070886;28;20381;-56
2024/03/20 01:12:00;;;;;;;1.10;0.68;;;;;;;;;;5069044;28;20044;-55
2024/03/20 01:14:25;;;;;;;2.17;0.77;;;;;;;;;;5070382;28;20039;-53
2024/03/20 01:16:51;;;;;;;1.75;0.60;;;;;;;;;;5070578;28;20464;-53
2024/03/20 01:19:16;;;;;;;4.32;0.90;;;;;;;;;;5069975;28;20052;-54
2024/03/20 01:21:41;;;;;;;1.13;0.65;;;;;;;;;;5070840;28;20042;-54
2024/03/20 01:24:07;;;;;;;1.00;0.52;;;;;;;;;;5070404;28;20419;-53
2024/03/20 01:26:32;;;;;;;1.00;0.50;;;;;;;;;;5070369;28;20879;-56
2024/03/20 01:28:57;;;;;;;1.17;0.60;;;;;;;;;;5070407;28;20527;-54
2024/03/20 01:31:23;;;;;;;1.42;0.60;;;;;;;;;;5070316;28;20381;-54
2024/03/20 01:33:48;;;;;;;1.50;0.55;;;;;;;;;;5070602;28;20044;-55
2024/03/20 01:36:14;;;;;;;0.80;0.60;;;;;;;;;;5069011;28;20040;-53
2024/03/20 01:38:39;;;;;;;1.38;0.65;;;;;;;;;;5070536;28;20035;-56
2024/03/20 01:41:05;;;;;;;0.70;0.50;;;;;;;;;;5070328;28;20066;-56
2024/03/20 01:43:30;;;;;;;0.85;0.60;;;;;;;;;;5068285;28;20036;-60
2024/03/20 01:45:57;;;;;;;0.50;0.50;;;;;;;;;;5069748;28;20036;-60
2024/03/20 01:48:22;;;;;;;2.85;0.68;;;;;;;;;;5069267;28;20044;-61
2024/03/20 01:50:47;;;;;;;1.30;0.60;;;;;;;;;;5070019;28;20037;-61
2024/03/20 01:53:13;;;;;;;1.15;0.50;;;;;;;;;;5051336;28;20028;-54
2024/03/20 01:55:39;;;;;;;0.63;0.60;;;;;;;;;;5069746;28;20044;-55
2024/03/20 01:58:04;;;;;;;0.45;0.40;;;;;;;;;;5070003;28;20040;-53
2024/03/20 02:00:30;;;;;;;0.82;0.50;;;;;;;;;;5069927;28;20098;-55
2024/03/20 02:03:00;;;;;;;1.48;0.60;;;;;;;;;;5069893;28;20036;-56
2024/03/20 02:05:26;;;;;;;1.90;0.73;;;;;;;;;;5070049;28;20028;-55
2024/03/20 02:07:53;;;;;;;0.73;0.50;;;;;;;;;;5069452;28;20460;-54
2024/03/20 02:10:19;;;;;;;0.82;0.50;;;;;;;;;;5069514;28;20044;-55
2024/03/20 02:12:44;;;;;;;0.70;0.43;;;;;;;;;;5070449;28;20349;-56
2024/03/20 02:15:10;;;;;;;0.95;0.50;;;;;;;;;;5069478;28;20036;-56
2024/03/20 02:17:37;;;;;;;0.98;0.50;;;;;;;;;;5069887;28;20495;-53
2024/03/20 02:20:04;;;;;;;0.40;0.40;;;;;;;;;;5070210;28;20055;-53
2024/03/20 02:22:34;;;;;;;3.67;0.57;;;;;;;;;;5069651;28;20111;-54
2024/03/20 02:25:00;;;;;;;0.95;0.50;;;;;;;;;;5069676;28;20032;-54
2024/03/20 02:27:26;;;;;;;1.38;0.60;;;;;;;;;;5070122;28;20033;-55
2024/03/20 02:29:51;;;;;;;0.82;0.50;;;;;;;;;;5069866;28;20035;-55
2024/03/20 02:32:16;;;;;;;0.65;0.40;;;;;;;;;;5069568;28;20048;-53
2024/03/20 02:34:42;;;;;;;1.42;0.60;;;;;;;;;;5069945;28;20464;-55
2024/03/20 02:37:07;;;;;;;1.90;0.50;;;;;;;;;;5073102;28;20059;-56
2024/03/20 02:39:32;;;;;;;0.65;0.45;;;;;;;;;;5073327;28;20048;-56
2024/03/20 02:41:58;;;;;;;2.85;0.80;;;;;;;;;;5070602;28;20094;-57
2024/03/20 02:44:23;;;;;;;0.70;0.55;;;;;;;;;;5073463;28;20043;-56
2024/03/20 02:46:49;;;;;;;0.93;0.50;;;;;;;;;;5073123;28;20046;-51
2024/03/20 02:49:14;;;;;;;1.13;0.50;;;;;;;;;;5073489;28;20067;-56
2024/03/20 02:51:39;;;;;;;0.70;0.45;;;;;;;;;;5072371;28;20040;-56
2024/03/20 02:54:05;;;;;;;0.80;0.50;;;;;;;;;;5073111;28;20052;-53
2024/03/20 02:56:30;;;;;;;0.90;0.50;;;;;;;;;;5073158;28;20040;-56
2024/03/20 02:58:55;;;;;;;1.05;0.50;;;;;;;;;;5072851;28;20028;-56
2024/03/20 03:01:21;;;;;;;0.95;0.57;;;;;;;;;;5072546;28;20040;-54
2024/03/20 03:03:46;;;;;;;0.43;0.40;;;;;;;;;;5072623;28;20082;-55
2024/03/20 03:06:14;;;;;;;0.85;0.50;;;;;;;;;;5072892;28;20055;-54
2024/03/20 03:08:40;;;;;;;0.75;0.40;;;;;;;;;;5073011;28;20083;-56
2024/03/20 03:11:06;;;;;;;0.90;0.50;;;;;;;;;;5072780;28;20100;-55
2024/03/20 03:13:31;;;;;;;0.80;0.50;;;;;;;;;;5073247;28;20025;-56
2024/03/20 03:16:02;;;;;;;0.75;0.40;;;;;;;;;;5072237;28;20040;-54
2024/03/20 03:18:27;;;;;;;0.70;0.47;;;;;;;;;;5072366;28;20361;-56
2024/03/20 03:20:53;;;;;;;0.70;0.35;;;;;;;;;;5071642;28;20063;-56
2024/03/20 03:23:18;;;;;;;1.48;0.50;;;;;;;;;;5073065;28;20190;-53
2024/03/20 03:25:43;;;;;;;0.47;0.40;;;;;;;;;;5070653;28;20124;-56
2024/03/20 03:28:09;;;;;;;0.70;0.50;;;;;;;;;;5072622;28;20032;-55
2024/03/20 03:30:34;;;;;;;0.50;0.40;;;;;;;;;;5072776;28;20043;-55
2024/03/20 03:33:00;;;;;;;0.75;0.40;;;;;;;;;;5070103;28;20040;-55
2024/03/20 03:35:25;;;;;;;0.88;0.45;;;;;;;;;;5072602;28;20032;-55
2024/03/20 03:37:50;;;;;;;2.58;0.55;;;;;;;;;;5072695;28;20036;-54
2024/03/20 03:40:16;;;;;;;1.30;0.50;;;;;;;;;;5072536;28;20048;-54
2024/03/20 03:42:41;;;;;;;1.05;0.50;;;;;;;;;;5072483;28;20040;-56
2024/03/20 03:45:08;;;;;;;1.08;0.47;;;;;;;;;;5072362;28;20036;-55
2024/03/20 03:47:33;;;;;;;2.78;0.60;;;;;;;;;;5069426;28;20488;-57
2024/03/20 03:49:59;;;;;;;0.50;0.40;;;;;;;;;;5071624;28;20028;-54
2024/03/20 03:52:25;;;;;;;0.80;0.50;;;;;;;;;;5072279;28;20037;-56
2024/03/20 03:54:50;;;;;;;1.00;0.50;;;;;;;;;;5072064;28;20044;-54
2024/03/20 03:57:16;;;;;;;1.90;0.52;;;;;;;;;;5071875;28;20075;-56
2024/03/20 03:59:42;;;;;;;0.82;0.47;;;;;;;;;;5072369;28;20058;-56
2024/03/20 04:02:07;;;;;;;0.68;0.45;;;;;;;;;;5072256;28;20123;-55
2024/03/20 04:04:32;;;;;;;0.65;0.47;;;;;;;;;;5071698;28;20047;-55
2024/03/20 04:06:58;;;;;;;1.27;0.40;;;;;;;;;;5071706;28;20094;-55
2024/03/20 04:09:25;;;;;;;1.10;0.60;;;;;;;;;;5071786;28;20082;-56
2024/03/20 04:11:50;;;;;;;0.52;0.40;;;;;;;;;;5071825;28;20064;-53
2024/03/20 04:14:16;;;;;;;0.40;0.40;;;;;;;;;;5071630;28;20071;-56
2024/03/20 04:16:42;;;;;;;0.80;0.43;;;;;;;;;;5071651;28;20063;-51
2024/03/20 04:19:07;;;;;;;0.60;0.40;;;;;;;;;;5071570;28;20044;-54
2024/03/20 04:21:33;;;;;;;1.85;0.52;;;;;;;;;;5071795;28;20106;-56
2024/03/20 04:23:58;;;;;;;1.30;0.60;;;;;;;;;;5072013;28;20048;-56
2024/03/20 04:26:24;;;;;;;0.38;0.38;;;;;;;;;;5071383;28;20094;-56
2024/03/20 04:28:49;;;;;;;1.30;0.77;;;;;;;;;;5070256;28;20040;-56
2024/03/20 04:31:15;;;;;;;0.60;0.40;;;;;;;;;;5071460;28;20073;-52
2024/03/20 04:34:19;;;;;;;1.70;0.68;;;;;;;;;;5071335;28;20044;-54
2024/03/20 04:36:44;;;;;;;0.40;0.40;;;;;;;;;;5069333;28;20063;-61
2024/03/20 04:39:10;;;;;;;0.40;0.40;;;;;;;;;;5071309;28;20045;-61
2024/03/20 04:41:35;;;;;;;1.08;0.60;;;;;;;;;;5071266;28;20032;-61
2024/03/20 04:44:01;;;;;;;0.52;0.40;;;;;;;;;;5070849;28;20040;-60
2024/03/20 04:46:26;;;;;;;0.90;0.50;;;;;;;;;;5070812;28;20111;-61
2024/03/20 04:48:51;;;;;;;0.88;0.60;;;;;;;;;;5070929;28;20059;-57
2024/03/20 04:51:17;;;;;;;0.90;0.50;;;;;;;;;;5070806;28;20488;-52
2024/03/20 04:53:42;;;;;;;0.90;0.50;;;;;;;;;;5070833;28;20391;-52
2024/03/20 04:56:07;;;;;;;0.47;0.40;;;;;;;;;;5071089;28;20434;-55
2024/03/20 04:58:32;;;;;;;0.75;0.50;;;;;;;;;;5070160;28;20448;-53
2024/03/20 05:00:58;;;;;;;0.65;0.40;;;;;;;;;;5070778;28;20040;-53
2024/03/20 05:03:23;;;;;;;1.05;0.50;;;;;;;;;;5070484;28;20032;-55
2024/03/20 05:05:48;;;;;;;1.10;0.40;;;;;;;;;;5070421;28;20051;-54
2024/03/20 05:08:14;;;;;;;0.63;0.45;;;;;;;;;;5070304;28;20039;-54
2024/03/20 05:10:39;;;;;;;1.70;0.50;;;;;;;;;;5070837;28;20074;-54
2024/03/20 05:13:05;;;;;;;0.80;0.50;;;;;;;;;;5070670;28;20504;-51
2024/03/20 05:15:30;;;;;;;1.40;0.60;;;;;;;;;;5069964;28;20070;-50
2024/03/20 05:17:55;;;;;;;0.80;0.60;;;;;;;;;;5070653;28;20040;-56
2024/03/20 05:20:20;;;;;;;1.15;0.60;;;;;;;;;;5070075;28;20044;-54
2024/03/20 05:22:46;;;;;;;0.85;0.45;;;;;;;;;;5070542;28;20090;-54
2024/03/20 05:25:11;;;;;;;0.88;0.40;;;;;;;;;;5070318;28;20040;-54
2024/03/20 05:27:36;;;;;;;1.45;0.55;;;;;;;;;;5064462;28;20032;-55
2024/03/20 05:30:02;;;;;;;0.88;0.60;;;;;;;;;;5070550;28;20037;-53
2024/03/20 05:32:27;;;;;;;1.95;0.40;;;;;;;;;;5069969;28;20082;-55
2024/03/20 05:34:53;;;;;;;0.93;0.50;;;;;;;;;;5070265;28;20048;-51
2024/03/20 05:37:18;;;;;;;0.73;0.40;;;;;;;;;;5070144;28;20411;-55
2024/03/20 05:39:43;;;;;;;0.75;0.52;;;;;;;;;;5069821;28;20037;-52
2024/03/20 05:42:09;;;;;;;0.40;0.40;;;;;;;;;;5070191;28;20064;-55
2024/03/20 05:44:34;;;;;;;0.73;0.50;;;;;;;;;;5070234;28;20036;-56
2024/03/20 05:47:00;;;;;;;0.70;0.40;;;;;;;;;;5069772;28;20117;-54
2024/03/20 05:49:25;;;;;;;2.42;0.50;;;;;;;;;;5069969;28;20059;-51
2024/03/20 05:51:50;;;;;;;0.60;0.50;;;;;;;;;;5070121;28;20020;-55
2024/03/20 05:54:16;;;;;;;0.57;0.40;;;;;;;;;;5069868;28;20036;-56
2024/03/20 05:56:42;;;;;;;1.05;0.57;;;;;;;;;;5069688;28;20484;-56
2024/03/20 05:59:08;;;;;;;0.90;0.47;;;;;;;;;;5070057;28;20028;-55
2024/03/20 06:01:33;;;;;;;0.50;0.50;;;;;;;;;;5069927;28;20040;-51
2024/03/20 06:03:59;;;;;;;0.68;0.47;;;;;;;;;;5069363;28;20060;-53
2024/03/20 06:06:26;;;;;;;1.05;0.47;;;;;;;;;;5069436;28;20028;-60
2024/03/20 06:08:52;;;;;;;0.70;0.47;;;;;;;;;;5064358;28;20060;-60
2024/03/20 06:11:18;;;;;;;0.50;0.40;;;;;;;;;;5071295;28;20125;-60
2024/03/20 06:13:45;;;;;;;2.47;0.70;;;;;;;;;;5073839;28;20044;-60
2024/03/20 06:16:11;;;;;;;1.08;0.55;;;;;;;;;;5073952;28;20403;-58
2024/03/20 06:18:37;;;;;;;0.82;0.50;;;;;;;;;;5073186;28;20056;-60
2024/03/20 06:21:02;;;;;;;2.70;0.50;;;;;;;;;;5073769;28;20501;-55
2024/03/20 06:23:28;;;;;;;1.40;0.50;;;;;;;;;;5073801;28;20028;-54
2024/03/20 06:25:53;;;;;;;0.68;0.60;;;;;;;;;;5073772;28;20032;-54
2024/03/20 06:28:18;;;;;;;0.47;0.40;;;;;;;;;;5070215;28;20064;-57
2024/03/20 06:30:44;;;;;;;1.00;0.55;;;;;;;;;;5073784;28;20542;-55
2024/03/20 06:33:09;;;;;;;0.90;0.60;;;;;;;;;;5073857;28;20102;-57
2024/03/20 06:35:35;;;;;;;0.63;0.50;;;;;;;;;;5072800;28;20086;-56
2024/03/20 06:38:03;;;;;;;0.40;0.40;;;;;;;;;;5073652;28;20040;-56
2024/03/20 06:40:32;;;;;;;2.65;0.60;;;;;;;;;;5073172;28;20040;-56
2024/03/20 06:42:59;;;;;;;1.90;0.60;;;;;;;;;;5072401;28;20645;-53
2024/03/20 06:45:32;;;;;;;1.48;0.60;;;;;;;;;;5073145;28;20029;-56
2024/03/20 06:47:58;;;;;;;0.65;0.50;;;;;;;;;;5073207;28;20388;-56
2024/03/20 06:50:27;;;;;;;1.13;0.40;;;;;;;;;;5072747;28;20029;-57
2024/03/20 06:52:57;;;;;;;0.88;0.50;;;;;;;;;;5073355;28;20585;-55
2024/03/20 06:55:23;;;;;;;1.20;0.50;;;;;;;;;;5072951;28;20392;-55
2024/03/20 06:57:49;;;;;;;2.28;0.50;;;;;;;;;;5071619;28;20082;-55
2024/03/20 07:00:17;;;;;;;1.00;0.60;;;;;;;;;;5065190;28;20037;-60
2024/03/20 07:02:46;;;;;;;0.40;0.40;;;;;;;;;;5071916;28;20032;-63
2024/03/20 07:05:15;;;;;;;1.02;0.50;;;;;;;;;;5063448;28;20036;-60
2024/03/20 07:07:44;;;;;;;0.80;0.40;;;;;;;;;;5083588;28;20127;-62
2024/03/20 07:10:10;;;;;;;0.68;0.50;;;;;;;;;;5072174;28;20037;-62
2024/03/20 07:12:36;;;;;;;0.93;0.47;;;;;;;;;;5073176;28;20040;-59
2024/03/20 07:15:06;;;;;;;1.25;0.55;;;;;;;;;;5071432;28;20046;-62
2024/03/20 07:17:32;;;;;;;2.00;0.60;;;;;;;;;;5071594;28;20036;-61
2024/03/20 07:19:57;;;;;;;0.50;0.47;;;;;;;;;;5072037;28;20044;-62
2024/03/20 07:22:23;;;;;;;0.90;0.50;;;;;;;;;;5070817;28;20048;-60
2024/03/20 07:24:48;;;;;;;0.70;0.50;;;;;;;;;;5072619;28;20066;-57
2024/03/20 07:27:13;;;;;;;1.60;0.65;;;;;;;;;;5073834;28;20032;-56
2024/03/20 07:29:39;;;;;;;0.73;0.40;;;;;;;;;;5072512;28;20044;-58
2024/03/20 07:32:07;;;;;;;1.25;0.52;;;;;;;;;;5072346;28;20040;-57
2024/03/20 07:34:34;;;;;;;1.35;0.60;;;;;;;;;;5072766;28;20025;-57
2024/03/20 07:36:59;;;;;;;1.38;0.55;;;;;;;;;;5072150;28;20143;-61
2024/03/20 07:39:27;;;;;;;0.85;0.50;;;;;;;;;;5077357;28;20638;-60
2024/03/20 07:41:53;;;;;;;0.40;0.40;;;;;;;;;;5064554;28;20052;-62
2024/03/20 07:44:18;;;;;;;0.43;0.43;;;;;;;;;;5070916;28;20095;-61
2024/03/20 07:46:44;;;;;;;0.75;0.50;;;;;;;;;;5070638;28;20468;-62
2024/03/20 07:49:10;;;;;;;1.73;0.60;;;;;;;;;;5071068;28;20507;-61
2024/03/20 07:51:35;;;;;;;1.00;0.57;;;;;;;;;;5071970;28;20075;-62
2024/03/20 07:54:01;;;;;;;0.45;0.40;;;;;;;;;;5070441;28;20028;-62
2024/03/20 07:56:26;;;;;;;0.90;0.47;;;;;;;;;;5071500;28;20032;-55
2024/03/20 07:58:51;;;;;;;0.90;0.50;;;;;;;;;;5071427;28;20029;-55
2024/03/20 08:01:17;;;;;;;1.20;0.60;;;;;;;;;;5071807;28;20082;-61
2024/03/20 08:03:43;;;;;;;0.98;0.47;;;;;;;;;;5072022;28;20029;-60
2024/03/20 08:06:09;;;;;;;0.85;0.50;;;;;;;;;;5071613;28;20085;-60
2024/03/20 08:08:35;;;;;;;1.30;0.60;;;;;;;;;;5071390;28;20034;-61
2024/03/20 08:11:00;;;;;;;0.70;0.50;;;;;;;;;;5072161;28;20020;-61
2024/03/20 08:13:27;;;;;;;0.40;0.40;;;;;;;;;;5068412;28;20468;-61
2024/03/20 08:15:52;;;;;;;0.68;0.43;;;;;;;;;;5072379;28;20090;-62
2024/03/20 08:18:18;;;;;;;13.80;0.70;;;;;;;;;;5070004;28;20036;-60
2024/03/20 08:20:43;;;;;;;2.72;0.60;;;;;;;;;;5071591;28;20369;-61
2024/03/20 08:23:08;;;;;;;1.20;0.60;;;;;;;;;;5070938;28;20040;-61
2024/03/20 08:25:35;;;;;;;3.28;0.80;;;;;;;;;;5069804;28;20115;-59
2024/03/20 08:28:01;;;;;;;1.73;0.60;;;;;;;;;;5071885;28;20040;-61
2024/03/20 08:30:26;;;;;;;0.57;0.32;;;;;;;;;;5071314;28;20552;-63
2024/03/20 08:32:52;;;;;;;1.17;0.55;;;;;;;;;;5069175;28;20028;-63
2024/03/20 08:35:18;;;;;;;1.75;0.70;;;;;;;;;;5070405;28;20173;-60
2024/03/20 08:37:44;;;;;;;1.08;0.55;;;;;;;;;;5070852;28;20384;-62
2024/03/20 08:40:10;;;;;;;1.15;0.50;;;;;;;;;;5071175;28;20119;-61
2024/03/20 08:42:36;;;;;;;2.60;0.63;;;;;;;;;;5071117;28;20048;-61
2024/03/20 08:45:02;;;;;;;0.98;0.60;;;;;;;;;;5071129;28;20055;-56
2024/03/20 08:47:28;;;;;;;1.48;0.60;;;;;;;;;;5070411;28;20721;-54
2024/03/20 08:49:54;;;;;;;1.10;0.50;;;;;;;;;;5070645;28;20044;-55
2024/03/20 08:52:21;;;;;;;2.58;0.75;;;;;;;;;;5071041;28;20043;-53
2024/03/20 08:54:49;;;;;;;0.77;0.50;;;;;;;;;;5070873;28;20036;-58
2024/03/20 08:57:16;;;;;;;1.15;0.70;;;;;;;;;;5070828;28;20435;-53
2024/03/20 08:59:41;;;;;;;5.18;0.70;;;;;;;;;;5071103;28;20033;-57
2024/03/20 09:02:08;;;;;;;1.17;0.50;;;;;;;;;;5071058;28;20024;-58
2024/03/20 09:04:34;;;;;;;0.70;0.40;;;;;;;;;;5070227;28;20052;-55
2024/03/20 09:06:59;;;;;;;1.17;0.50;;;;;;;;;;5070759;28;20047;-58
2024/03/20 09:09:24;;;;;;;0.60;0.43;;;;;;;;;;5070700;28;20027;-57
2024/03/20 09:11:50;;;;;;;0.95;0.60;;;;;;;;;;5067809;28;21517;-62
2024/03/20 09:14:15;;;;;;;0.95;0.50;;;;;;;;;;5072368;28;20395;-60
2024/03/20 09:16:40;;;;;;;0.63;0.50;;;;;;;;;;5069306;28;20392;-62
2024/03/20 09:19:06;;;;;;;1.35;0.65;;;;;;;;;;5071568;28;20634;-60
2024/03/20 09:21:34;;;;;;;2.83;0.60;;;;;;;;;;5072780;28;20128;-61
2024/03/20 09:24:00;;;;;;;1.70;0.60;;;;;;;;;;5071676;28;20034;-61
2024/03/20 09:26:26;;;;;;;2.17;0.90;;;;;;;;;;5061016;28;20044;-62
2024/03/20 09:28:51;;;;;;;2.08;0.65;;;;;;;;;;5059961;28;20147;-60
2024/03/20 09:31:16;;;;;;;1.88;0.60;;;;;;;;;;5065265;28;20090;-60
2024/03/20 09:33:42;;;;;;;5.03;0.73;;;;;;;;;;5060575;28;20044;-62
2024/03/20 09:36:07;;;;;;;1.85;0.60;;;;;;;;;;5078007;28;20697;-60
2024/03/20 09:38:33;;;;;;;3.40;0.70;;;;;;;;;;5070168;28;20048;-62
2024/03/20 09:40:59;;;;;;;4.10;0.60;;;;;;;;;;5066677;28;20041;-55
2024/03/20 09:43:24;;;;;;;1.77;0.70;;;;;;;;;;5046249;28;20036;-59
2024/03/20 09:45:51;;;;;;;1.60;0.80;;;;;;;;;;5071179;28;20521;-60
2024/03/20 09:48:16;;;;;;;4.30;0.60;;;;;;;;;;5047309;28;20067;-60
2024/03/20 09:50:42;;;;;;;4.15;0.80;;;;;;;;;;5064437;28;20276;-61
2024/03/20 09:53:08;;;;;;;1.58;0.63;;;;;;;;;;5064120;28;20455;-59
2024/03/20 09:55:35;;;;;;;3.22;0.70;;;;;;;;;;5060588;28;20036;-60
2024/03/20 09:58:01;;;;;;;1.45;0.65;;;;;;;;;;5068857;28;20024;-60
2024/03/20 10:00:27;;;;;;;1.75;0.55;;;;;;;;;;5064853;28;20513;-58
2024/03/20 10:02:54;;;;;;;3.85;0.65;;;;;;;;;;5063906;28;20048;-57
2024/03/20 10:05:19;;;;;;;1.40;0.70;;;;;;;;;;5064620;28;20039;-59
2024/03/20 10:07:46;;;;;;;3.53;0.80;;;;;;;;;;5070455;28;20387;-62
2024/03/20 10:10:13;;;;;;;4.47;0.70;;;;;;;;;;5075999;28;20583;-60
2024/03/20 10:12:40;;;;;;;1.05;0.52;;;;;;;;;;5056647;28;20028;-62
2024/03/20 10:15:07;;;;;;;3.42;0.70;;;;;;;;;;5065828;28;20652;-59
2024/03/20 10:17:34;;;;;;;1.10;0.60;;;;;;;;;;5065824;28;20037;-62
2024/03/20 10:20:03;;;;;;;1.38;0.60;;;;;;;;;;5065609;28;20407;-61
2024/03/20 10:22:28;;;;;;;1.42;0.52;;;;;;;;;;5064211;28;20082;-62
2024/03/20 10:24:54;;;;;;;2.05;0.70;;;;;;;;;;5048026;28;20062;-62
2024/03/20 10:27:19;;;;;;;3.58;0.60;;;;;;;;;;5065369;28;20034;-62
2024/03/20 10:29:46;;;;;;;1.40;0.60;;;;;;;;;;5062308;28;20111;-62
2024/03/20 10:32:13;;;;;;;3.63;1.00;;;;;;;;;;5047478;28;20040;-62
2024/03/20 10:34:38;;;;;;;2.15;0.68;;;;;;;;;;5047898;28;20032;-62
2024/03/20 10:37:06;;;;;;;4.15;0.80;;;;;;;;;;5064427;28;20622;-62
2024/03/20 10:39:34;;;;;;;2.90;0.63;;;;;;;;;;5063470;28;20072;-61
2024/03/20 10:42:00;;;;;;;4.72;0.60;;;;;;;;;;5064985;28;20044;-61
2024/03/20 10:44:26;;;;;;;3.13;0.60;;;;;;;;;;5048327;28;20594;-61
2024/03/20 10:46:54;;;;;;;2.92;0.70;;;;;;;;;;5064831;28;20069;-62
2024/03/20 10:49:23;;;;;;;1.98;0.60;;;;;;;;;;5065254;28;20438;-62
2024/03/20 10:51:50;;;;;;;1.05;0.60;;;;;;;;;;5061175;28;20040;-62
2024/03/20 10:54:15;;;;;;;1.23;0.63;;;;;;;;;;5057668;28;20040;-61
2024/03/20 10:56:49;;;;;;;1.88;0.68;;;;;;;;;;5045116;28;20028;-62
2024/03/20 10:59:19;;;;;;;2.30;0.70;;;;;;;;;;5068849;28;20044;-62
2024/03/20 11:01:59;;;;;;;4.50;0.70;;;;;;;;;;5068204;28;20040;-62
2024/03/20 11:04:34;;;;;;;1.58;0.60;;;;;;;;;;5050609;28;20044;-61
2024/03/20 11:06:59;;;;;;;1.67;0.57;;;;;;;;;;5067302;28;20044;-62
2024/03/20 11:09:26;;;;;;;3.10;0.63;;;;;;;;;;5068192;28;20576;-61
2024/03/20 11:11:52;;;;;;;2.33;0.75;;;;;;;;;;5061470;28;20139;-63
2024/03/20 11:14:29;;;;;;;1.73;0.68;;;;;;;;;;5068463;28;20120;-62
2024/03/20 11:17:00;;;;;;;1.08;0.50;;;;;;;;;;5066859;28;20028;-62
2024/03/20 11:19:27;;;;;;;0.57;0.43;;;;;;;;;;5067805;28;20049;-60
2024/03/20 11:21:53;;;;;;;1.92;0.70;;;;;;;;;;5067669;28;20562;-62
2024/03/20 11:24:19;;;;;;;2.38;0.70;;;;;;;;;;5068450;28;20103;-62
2024/03/20 11:26:45;;;;;;;1.17;0.60;;;;;;;;;;5068159;28;20068;-61
2024/03/20 11:29:11;;;;;;;2.22;0.70;;;;;;;;;;5049364;28;20075;-59
2024/03/20 11:31:39;;;;;;;1.30;0.60;;;;;;;;;;5067752;28;20028;-62
2024/03/20 11:34:07;;;;;;;1.08;0.63;;;;;;;;;;5067771;28;20046;-59
2024/03/20 11:36:33;;;;;;;1.35;0.70;;;;;;;;;;5067832;28;20045;-60
2024/03/20 11:38:59;;;;;;;0.98;0.57;;;;;;;;;;5068599;28;20118;-62
2024/03/20 11:41:24;;;;;;;4.07;0.65;;;;;;;;;;5049469;28;20544;-61
2024/03/20 11:43:50;;;;;;;1.70;0.82;;;;;;;;;;5067456;28;20044;-61
2024/03/20 11:46:23;;;;;;;0.82;0.50;;;;;;;;;;5067114;28;20032;-62
2024/03/20 11:48:52;;;;;;;0.88;0.40;;;;;;;;;;5054018;28;20457;-61
2024/03/20 11:51:22;;;;;;;5.97;0.80;;;;;;;;;;5049660;28;20059;-61
2024/03/20 11:53:49;;;;;;;1.50;0.60;;;;;;;;;;5049849;28;20395;-61
2024/03/20 11:56:14;;;;;;;2.53;0.60;;;;;;;;;;5066825;28;20102;-61
2024/03/20 11:58:39;;;;;;;0.80;0.57;;;;;;;;;;5067878;28;20065;-62
2024/03/20 12:01:08;;;;;;;1.02;0.60;;;;;;;;;;5066973;28;20034;-62
2024/03/20 12:03:37;;;;;;;1.77;0.90;;;;;;;;;;5049513;28;20415;-60
2024/03/20 12:06:16;;;;;;;1.45;0.65;;;;;;;;;;5066290;28;20052;-62
2024/03/20 12:08:44;;;;;;;1.17;0.70;;;;;;;;;;5066339;28;20054;-59
2024/03/20 12:11:28;;;;;;;1.27;0.63;;;;;;;;;;5067080;28;20041;-60
2024/03/20 12:13:54;;;;;;;1.73;0.50;;;;;;;;;;5067558;28;20752;-62
2024/03/20 12:16:23;;;;;;;1.65;0.60;;;;;;;;;;5068305;28;20109;-61
2024/03/20 12:18:51;;;;;;;4.20;0.65;;;;;;;;;;5067754;28;20047;-61
2024/03/20 12:21:19;;;;;;;1.33;0.70;;;;;;;;;;5067329;28;20152;-62
2024/03/20 12:23:45;;;;;;;1.50;0.60;;;;;;;;;;5067299;28;20542;-60
2024/03/20 12:26:12;;;;;;;0.73;0.47;;;;;;;;;;5062810;28;20032;-63
2024/03/20 12:28:37;;;;;;;3.42;0.90;;;;;;;;;;5063984;28;20044;-63
2024/03/20 12:31:04;;;;;;;1.42;0.60;;;;;;;;;;5066943;28;20055;-60
2024/03/20 12:33:29;;;;;;;1.15;0.60;;;;;;;;;;5067383;28;20020;-63
2024/03/20 12:35:55;;;;;;;2.35;0.70;;;;;;;;;;5066480;28;20075;-62
2024/03/20 12:38:21;;;;;;;0.88;0.50;;;;;;;;;;5066173;28;20033;-63
2024/03/20 12:40:46;;;;;;;1.08;0.60;;;;;;;;;;5066886;28;20123;-62
2024/03/20 12:43:15;;;;;;;0.90;0.55;;;;;;;;;;5065155;28;20032;-63
2024/03/20 12:45:41;;;;;;;2.35;0.70;;;;;;;;;;5066269;28;20451;-62
2024/03/20 12:48:15;;;;;;;1.55;0.60;;;;;;;;;;5065285;28;20029;-63
2024/03/20 12:50:41;;;;;;;3.50;0.70;;;;;;;;;;5072857;28;20044;-63
2024/03/20 12:53:15;;;;;;;1.25;0.60;;;;;;;;;;5060325;28;20027;-61
2024/03/20 12:55:40;;;;;;;1.63;0.70;;;;;;;;;;5064804;28;20047;-63
2024/03/20 12:58:07;;;;;;;0.90;0.52;;;;;;;;;;5065662;28;20028;-62
2024/03/20 13:00:33;;;;;;;0.85;0.60;;;;;;;;;;5047327;28;20033;-61
2024/03/20 13:02:58;;;;;;;1.60;0.63;;;;;;;;;;5036118;28;20035;-63
2024/03/20 13:05:24;;;;;;;0.82;0.50;;;;;;;;;;5065190;28;20033;-63
2024/03/20 13:07:49;;;;;;;1.20;0.52;;;;;;;;;;5065754;28;20044;-62
2024/03/20 13:10:15;;;;;;;1.02;0.57;;;;;;;;;;5065323;28;20403;-62
2024/03/20 13:12:43;;;;;;;1.50;0.60;;;;;;;;;;5063339;28;20116;-62
2024/03/20 13:15:08;;;;;;;2.25;0.60;;;;;;;;;;5058154;28;20037;-62
2024/03/20 13:17:35;;;;;;;0.63;0.50;;;;;;;;;;5064817;28;20039;-62
2024/03/20 13:20:03;;;;;;;0.52;0.40;;;;;;;;;;5059858;28;20044;-62
2024/03/20 13:22:30;;;;;;;1.35;0.60;;;;;;;;;;5059836;28;20517;-62
2024/03/20 13:24:57;;;;;;;1.08;0.60;;;;;;;;;;5065109;28;20081;-62
2024/03/20 13:27:22;;;;;;;1.40;0.70;;;;;;;;;;5062173;28;20058;-60
2024/03/20 13:29:49;;;;;;;0.45;0.45;;;;;;;;;;5065946;28;20040;-61
2024/03/20 13:32:18;;;;;;;1.38;0.70;;;;;;;;;;5065043;28;20063;-61
2024/03/20 13:34:53;;;;;;;1.02;0.60;;;;;;;;;;5057215;28;20063;-62
2024/03/20 13:37:21;;;;;;;0.75;0.50;;;;;;;;;;5065295;28;20033;-61
2024/03/20 13:39:52;;;;;;;0.95;0.50;;;;;;;;;;5065497;28;20109;-62
2024/03/20 13:42:33;;;;;;;2.35;0.60;;;;;;;;;;5062212;28;20384;-61
2024/03/20 13:45:03;;;;;;;0.52;0.47;;;;;;;;;;5062455;28;20036;-62
2024/03/20 13:47:28;;;;;;;0.77;0.50;;;;;;;;;;5064411;28;20055;-62
2024/03/20 13:49:54;;;;;;;0.65;0.50;;;;;;;;;;5065764;28;20488;-62
2024/03/20 13:52:19;;;;;;;1.27;0.77;;;;;;;;;;5056637;28;20036;-62
2024/03/20 13:54:45;;;;;;;1.00;0.55;;;;;;;;;;5064840;28;20028;-61
2024/03/20 13:57:12;;;;;;;0.85;0.43;;;;;;;;;;5065109;28;20151;-62
2024/03/20 13:59:40;;;;;;;0.73;0.52;;;;;;;;;;5065207;28;20037;-62
2024/03/20 14:02:20;;;;;;;1.10;0.60;;;;;;;;;;5064627;28;20496;-62
2024/03/20 14:04:45;;;;;;;1.33;0.60;;;;;;;;;;5065419;28;20115;-61
2024/03/20 14:07:11;;;;;;;0.95;0.52;;;;;;;;;;5065087;28;20226;-62
2024/03/20 14:09:36;;;;;;;0.88;0.50;;;;;;;;;;5065924;28;20051;-62
2024/03/20 14:12:02;;;;;;;1.10;0.60;;;;;;;;;;5065552;28;20113;-62
2024/03/20 14:14:27;;;;;;;1.00;0.50;;;;;;;;;;5065307;28;20172;-63
2024/03/20 14:16:52;;;;;;;0.95;0.57;;;;;;;;;;5065451;28;20048;-61
2024/03/20 14:19:18;;;;;;;2.83;0.65;;;;;;;;;;5063402;28;20059;-61
2024/03/20 14:21:43;;;;;;;1.23;0.50;;;;;;;;;;5066384;28;20028;-59
2024/03/20 14:24:09;;;;;;;2.15;0.65;;;;;;;;;;5065834;28;20086;-62
2024/03/20 14:26:35;;;;;;;1.02;0.65;;;;;;;;;;5065353;28;20032;-62
2024/03/20 14:29:08;;;;;;;0.68;0.50;;;;;;;;;;5065780;28;20025;-63
2024/03/20 14:31:33;;;;;;;1.50;0.50;;;;;;;;;;5064476;28;20044;-63
2024/03/20 14:33:59;;;;;;;1.10;0.75;;;;;;;;;;5065700;28;20047;-62
2024/03/20 14:36:25;;;;;;;1.38;0.63;;;;;;;;;;5069823;28;20036;-62
2024/03/20 14:38:53;;;;;;;0.73;0.60;;;;;;;;;;5070459;28;20036;-62